Time;durP1;ratioP1;P1;durP2;ratioP2;P2;SDS_P1;SDS_P2;PMS_P1;PMS_P2;Temp;Humidity;BMP_temperature;BMP_pressure;BME280_temperature;BME280_humidity;BME280_pressure;Samples;Min_cycle;Max_cycle;Signal;HPM_P1;HPM_P2
2023/01/08 00:01:50;;;;;;;6.45;4.80;;;10.20;99.90;;;;;;4996270;28;20034;-81
2023/01/08 00:04:19;;;;;;;7.70;4.40;;;;;;;;;;4999194;28;20035;-81
2023/01/08 00:06:45;;;;;;;8.88;4.88;;;;;;;;;;4999314;28;20023;-82
2023/01/08 00:09:11;;;;;;;7.35;4.55;;;;;;;;;;4980338;28;20025;-81
2023/01/08 00:11:37;;;;;;;6.82;4.28;;;10.10;99.90;;;;;;4980866;28;20011;-80
2023/01/08 00:14:04;;;;;;;9.70;4.80;;;10.10;99.90;;;;;;4980545;28;20030;-79
2023/01/08 00:16:32;;;;;;;12.38;5.82;;;10.10;99.90;;;;;;4987116;28;20041;-81
2023/01/08 00:19:00;;;;;;;7.70;5.03;;;10.20;99.90;;;;;;4980809;28;20010;-81
2023/01/08 00:21:26;;;;;;;7.78;5.00;;;;;;;;;;4994791;28;20043;-81
2023/01/08 00:23:51;;;;;;;8.05;5.25;;;10.20;99.90;;;;;;4990468;28;20027;-82
2023/01/08 00:26:17;;;;;;;7.03;4.60;;;12.80;99.90;;;;;;4994355;28;20019;-81
2023/01/08 00:28:46;;;;;;;7.60;5.05;;;;;;;;;;4996871;28;20018;-80
2023/01/08 00:31:12;;;;;;;8.02;5.13;;;10.20;99.90;;;;;;4997084;28;20038;-81
2023/01/08 00:33:59;;;;;;;8.00;4.40;;;11.00;99.90;;;;;;4981833;28;20011;-81
2023/01/08 00:36:24;;;;;;;6.72;4.65;;;12.60;99.90;;;;;;4967506;28;20027;-80
2023/01/08 00:38:59;;;;;;;8.32;4.82;;;10.10;99.90;;;;;;4995679;28;20046;-80
2023/01/08 00:41:26;;;;;;;6.68;4.43;;;;;;;;;;4987737;28;20018;-82
2023/01/08 00:43:52;;;;;;;8.35;5.10;;;;;;;;;;4995257;28;20035;-82
2023/01/08 00:46:18;;;;;;;6.45;4.47;;;;;;;;;;4974535;28;20018;-81
2023/01/08 00:48:45;;;;;;;5.63;4.35;;;;;;;;;;4999989;28;20025;-80
2023/01/08 00:51:11;;;;;;;7.80;4.68;;;;;;;;;;4999067;28;20026;-81
2023/01/08 00:53:36;;;;;;;9.75;4.80;;;10.10;99.90;;;;;;4991013;28;20042;-81
2023/01/08 00:56:07;;;;;;;7.25;4.70;;;10.00;99.90;;;;;;4995567;28;20030;-81
2023/01/08 00:58:36;;;;;;;9.88;4.75;;;12.30;99.90;;;;;;4967533;28;20071;-80
2023/01/08 01:01:02;;;;;;;9.93;4.57;;;9.40;99.90;;;;;;5004847;28;20057;-80
2023/01/08 01:03:27;;;;;;;8.63;4.30;;;8.10;99.90;;;;;;4978256;28;20003;-81
2023/01/08 01:06:07;;;;;;;7.80;4.55;;;7.90;99.90;;;;;;4980001;28;20103;-81
2023/01/08 01:08:51;;;;;;;6.90;4.43;;;10.10;99.90;;;;;;4979021;28;20035;-80
2023/01/08 01:11:20;;;;;;;6.53;4.00;;;10.10;99.90;;;;;;4995875;28;20027;-80
2023/01/08 01:13:49;;;;;;;6.95;4.00;;;10.10;99.90;;;;;;4979787;28;20030;-81
2023/01/08 01:16:15;;;;;;;6.28;3.78;;;;;;;;;;4979086;28;20031;-81
2023/01/08 01:18:41;;;;;;;6.20;4.35;;;;;;;;;;4980188;28;20007;-82
2023/01/08 01:21:23;;;;;;;6.25;4.38;;;10.10;99.90;;;;;;4993998;28;20019;-81
2023/01/08 01:23:52;;;;;;;8.70;4.20;;;10.10;99.90;;;;;;4981474;28;20031;-82
2023/01/08 01:26:30;;;;;;;6.97;3.95;;;10.00;99.90;;;;;;4993971;28;20042;-81
2023/01/08 01:28:57;;;;;;;7.03;3.60;;;10.00;99.90;;;;;;4989260;28;20090;-81
2023/01/08 01:31:30;;;;;;;6.53;3.72;;;10.00;99.90;;;;;;4977060;28;20027;-80
2023/01/08 01:33:56;;;;;;;5.47;3.40;;;10.40;99.90;;;;;;4955255;28;20011;-80
2023/01/08 01:36:23;;;;;;;7.18;3.70;;;10.10;99.90;;;;;;4982131;28;20075;-81
2023/01/08 01:38:52;;;;;;;6.07;3.95;;;10.10;99.90;;;;;;4976295;28;20018;-80
2023/01/08 01:41:30;;;;;;;8.40;3.80;;;10.10;99.90;;;;;;4985606;28;20082;-82
2023/01/08 01:43:59;;;;;;;8.48;3.58;;;10.10;99.90;;;;;;4972495;28;20028;-81
2023/01/08 01:46:28;;;;;;;5.03;3.25;;;14.00;99.90;;;;;;4959499;28;20042;-81
2023/01/08 01:49:02;;;;;;;6.07;3.85;;;10.10;99.90;;;;;;5000486;28;20026;-81
2023/01/08 01:51:32;;;;;;;6.28;3.60;;;10.30;99.90;;;;;;4980837;28;20037;-81
2023/01/08 01:54:01;;;;;;;6.13;3.30;;;10.00;99.90;;;;;;4975170;28;20023;-81
2023/01/08 01:56:29;;;;;;;7.28;3.45;;;13.60;99.90;;;;;;4966201;28;20079;-82
2023/01/08 01:58:55;;;;;;;6.63;4.30;;;;;;;;;;4999154;28;20023;-81
2023/01/08 02:01:27;;;;;;;5.95;3.83;;;10.00;99.90;;;;;;4964084;28;20038;-82
2023/01/08 02:03:53;;;;;;;6.40;3.67;;;10.20;99.90;;;;;;4958444;28;20115;-84
2023/01/08 02:06:29;;;;;;;8.18;4.45;;;10.10;99.90;;;;;;4997806;28;20035;-84
2023/01/08 02:09:18;;;;;;;8.30;4.30;;;10.00;99.90;;;;;;4997987;28;20029;-82
2023/01/08 02:12:29;;;;;;;6.68;4.22;;;10.00;99.90;;;;;;4995878;28;20021;-82
2023/01/08 02:14:55;;;;;;;5.80;4.05;;;;;;;;;;4866380;29;20050;-83
2023/01/08 02:17:32;;;;;;;7.35;4.03;;;10.00;99.90;;;;;;4987618;28;20042;-83
2023/01/08 02:20:21;;;;;;;7.85;4.15;;;10.00;99.90;;;;;;4978219;28;20023;-81
2023/01/08 02:22:52;;;;;;;6.72;4.22;;;10.00;99.90;;;;;;4967775;28;20019;-84
2023/01/08 02:25:51;;;;;;;6.88;4.35;;;9.90;99.90;;;;;;4989117;28;20054;-83
2023/01/08 02:28:17;;;;;;;7.05;4.55;;;10.00;99.90;;;;;;4956881;28;20035;-81
2023/01/08 02:30:48;;;;;;;7.82;4.72;;;9.90;99.90;;;;;;4986901;28;20035;-81
2023/01/08 02:33:14;;;;;;;7.40;4.72;;;11.00;99.90;;;;;;4959590;28;20046;-81
2023/01/08 02:35:46;;;;;;;7.32;4.88;;;9.90;99.90;;;;;;4998043;28;20090;-80
2023/01/08 02:38:15;;;;;;;6.78;4.60;;;12.60;99.90;;;;;;4994774;28;20027;-83
2023/01/08 02:40:59;;;;;;;9.23;4.60;;;12.70;99.90;;;;;;4992693;28;20046;-81
2023/01/08 02:43:43;;;;;;;6.20;4.30;;;9.90;99.90;;;;;;4990719;28;20027;-80
2023/01/08 02:46:15;;;;;;;6.22;4.60;;;9.20;99.90;;;;;;4992331;28;20107;-81
2023/01/08 02:48:48;;;;;;;6.93;4.65;;;9.90;99.90;;;;;;4989548;28;20011;-81
2023/01/08 02:51:25;;;;;;;7.63;3.88;;;10.00;99.90;;;;;;4973184;28;20050;-83
2023/01/08 02:53:59;;;;;;;5.15;3.72;;;10.00;99.90;;;;;;4994825;28;20023;-82
2023/01/08 02:56:34;;;;;;;5.90;4.05;;;10.00;99.90;;;;;;4988244;28;20031;-81
2023/01/08 02:59:18;;;;;;;6.10;4.43;;;9.90;99.90;;;;;;4996444;28;20064;-80
2023/01/08 03:01:45;;;;;;;7.20;4.47;;;9.90;99.90;;;;;;4979993;28;20043;-80
2023/01/08 03:04:17;;;;;;;6.18;4.28;;;9.90;99.90;;;;;;4995957;28;20034;-81
2023/01/08 03:06:43;;;;;;;7.35;4.38;;;;;;;;;;4974296;28;20027;-80
2023/01/08 03:09:10;;;;;;;5.95;3.90;;;10.00;99.90;;;;;;5000653;28;20072;-80
2023/01/08 03:11:43;;;;;;;7.53;4.13;;;10.00;99.90;;;;;;4977048;28;20030;-81
2023/01/08 03:14:17;;;;;;;5.22;3.80;;;10.00;99.90;;;;;;4961709;28;20073;-80
2023/01/08 03:16:47;;;;;;;6.13;4.03;;;7.10;99.90;;;;;;4991225;28;20050;-80
2023/01/08 03:19:28;;;;;;;6.43;3.75;;;10.00;99.90;;;;;;4983994;28;20086;-80
2023/01/08 03:21:57;;;;;;;6.45;3.40;;;9.90;99.90;;;;;;4976505;28;20047;-80
2023/01/08 03:24:48;;;;;;;7.90;3.80;;;10.50;99.90;;;;;;4997115;28;20015;-80
2023/01/08 03:27:20;;;;;;;6.18;4.22;;;9.80;99.90;;;;;;5002339;28;20018;-80
2023/01/08 03:29:50;;;;;;;5.05;3.80;;;9.80;99.90;;;;;;4997848;28;20007;-80
2023/01/08 03:32:18;;;;;;;7.22;4.40;;;9.80;99.90;;;;;;4981772;28;20042;-81
2023/01/08 03:34:46;;;;;;;6.53;3.97;;;11.60;99.90;;;;;;4996190;28;20111;-80
2023/01/08 03:37:15;;;;;;;4.68;3.47;;;10.90;99.90;;;;;;4980832;28;20027;-81
2023/01/08 03:39:56;;;;;;;5.05;3.45;;;10.20;99.90;;;;;;4964585;28;20038;-80
2023/01/08 03:42:23;;;;;;;6.53;3.53;;;;;;;;;;4998968;28;20045;-80
2023/01/08 03:44:49;;;;;;;6.65;3.40;;;;;;;;;;4995138;28;20006;-80
2023/01/08 03:47:15;;;;;;;6.60;3.60;;;9.80;99.90;;;;;;4994502;28;20087;-80
2023/01/08 03:49:43;;;;;;;4.75;3.35;;;9.80;99.90;;;;;;4990558;28;20019;-81
2023/01/08 03:52:09;;;;;;;4.72;2.90;;;;;;;;;;4986654;28;20556;-81
2023/01/08 03:54:36;;;;;;;5.30;3.70;;;9.70;99.90;;;;;;4973137;28;20030;-82
2023/01/08 03:57:02;;;;;;;5.05;3.45;;;9.70;99.90;;;;;;4963358;29;20516;-81
2023/01/08 03:59:31;;;;;;;5.50;3.30;;;;;;;;;;4991772;28;20015;-80
2023/01/08 04:01:57;;;;;;;6.32;3.30;;;9.90;99.90;;;;;;4985064;28;20042;-81
2023/01/08 04:04:22;;;;;;;5.70;3.50;;;9.70;99.90;;;;;;4984065;28;20026;-81
2023/01/08 04:06:49;;;;;;;5.47;3.45;;;;;;;;;;4955907;28;20119;-81
2023/01/08 04:09:15;;;;;;;7.78;3.40;;;;;;;;;;4986023;28;20062;-81
2023/01/08 04:11:41;;;;;;;6.30;3.80;;;;;;;;;;4985694;28;20034;-82
2023/01/08 04:14:12;;;;;;;4.15;3.00;;;9.70;99.90;;;;;;4989795;28;20030;-80
2023/01/08 04:16:38;;;;;;;4.57;3.30;;;;;;;;;;4984675;28;20026;-80
2023/01/08 04:19:04;;;;;;;5.35;3.55;;;;;;;;;;4980211;28;20041;-81
2023/01/08 04:21:30;;;;;;;6.18;3.00;;;;;;;;;;4990509;28;20094;-81
2023/01/08 04:23:56;;;;;;;5.20;3.13;;;;;;;;;;4991900;28;20023;-80
2023/01/08 04:26:37;;;;;;;4.40;2.92;;;9.70;99.90;;;;;;4974431;28;20030;-82
2023/01/08 04:29:03;;;;;;;8.38;2.97;;;9.70;99.90;;;;;;4988130;28;20034;-80
2023/01/08 04:31:30;;;;;;;5.03;2.80;;;9.70;99.90;;;;;;4989640;28;20085;-80
2023/01/08 04:33:56;;;;;;;4.30;2.83;;;9.70;99.90;;;;;;4986204;28;20026;-81
2023/01/08 04:36:21;;;;;;;3.17;2.45;;;9.70;99.90;;;;;;4989404;28;20058;-80
2023/01/08 04:38:47;;;;;;;4.07;2.85;;;;;;;;;;4982966;28;20087;-81
2023/01/08 04:41:13;;;;;;;4.18;2.70;;;9.70;99.90;;;;;;4986245;28;20038;-81
2023/01/08 04:43:39;;;;;;;5.15;2.50;;;;;;;;;;4981797;28;20006;-80
2023/01/08 04:46:11;;;;;;;3.13;2.20;;;9.80;99.90;;;;;;4988579;28;20035;-81
2023/01/08 04:48:37;;;;;;;3.53;1.95;;;;;;;;;;4990798;28;20114;-81
2023/01/08 04:51:05;;;;;;;2.95;2.08;;;9.80;99.90;;;;;;4987878;28;20034;-81
2023/01/08 04:53:34;;;;;;;3.10;1.95;;;9.70;99.90;;;;;;4983545;28;20038;-81
2023/01/08 04:56:08;;;;;;;4.30;2.45;;;9.70;99.90;;;;;;4980083;28;20050;-80
2023/01/08 04:58:35;;;;;;;2.95;2.10;;;9.70;99.90;;;;;;4984332;28;20035;-81
2023/01/08 05:01:10;;;;;;;3.25;2.28;;;9.60;99.90;;;;;;4974809;28;20058;-81
2023/01/08 05:03:36;;;;;;;3.17;2.10;;;9.70;99.90;;;;;;4985971;28;20037;-81
2023/01/08 05:08:55;;;;;;;3.95;2.08;;;9.60;99.90;;;;;;4942377;28;20024;-87
2023/01/08 05:11:27;;;;;;;3.28;2.15;;;9.60;99.90;;;;;;4925760;28;20035;-86
2023/01/08 05:13:59;;;;;;;5.47;2.30;;;;;;;;;;4922501;29;20028;-85
2023/01/08 05:16:31;;;;;;;3.50;2.03;;;9.60;99.90;;;;;;4941133;29;20516;-88
2023/01/08 05:19:07;;;;;;;;;;;;;;;;;;;;;
2023/01/08 05:21:36;;;;;;;3.55;2.20;;;12.40;99.90;;;;;;4940933;29;20107;-88
2023/01/08 05:24:02;;;;;;;4.63;2.20;;;;;;;;;;4923009;29;20028;-87
2023/01/08 05:26:40;;;;;;;2.65;1.70;;;;;;;;;;4940702;29;20047;-88
2023/01/08 05:29:07;;;;;;;3.15;1.75;;;9.50;99.90;;;;;;4923498;29;20042;-86
2023/01/08 05:31:45;;;;;;;3.08;1.63;;;9.40;99.90;;;;;;4940627;29;20043;-87
2023/01/08 05:34:30;;;;;;;4.28;1.95;;;9.40;99.90;;;;;;4944016;29;20036;-85
2023/01/08 05:36:56;;;;;;;3.00;1.70;;;;;;;;;;4928059;29;20044;-87
2023/01/08 05:39:51;;;;;;;4.72;2.22;;;9.40;99.90;;;;;;4925814;29;20043;-86
2023/01/08 05:42:53;;;;;;;2.80;1.63;;;9.40;99.90;;;;;;4945980;28;20031;-86
2023/01/08 05:45:33;;;;;;;2.47;1.55;;;9.30;99.90;;;;;;4932011;29;20232;-87
2023/01/08 05:48:29;;;;;;;3.55;1.33;;;9.30;99.90;;;;;;4930113;29;20091;-86
2023/01/08 05:51:04;;;;;;;2.22;1.35;;;9.30;99.90;;;;;;4916114;29;20040;-87
2023/01/08 05:53:50;;;;;;;2.53;1.50;;;9.30;99.90;;;;;;4934584;29;20024;-88
2023/01/08 05:56:20;;;;;;;1.65;1.10;;;9.30;99.90;;;;;;4924339;29;20020;-86
2023/01/08 05:58:57;;;;;;;1.48;0.98;;;9.30;99.90;;;;;;4922356;29;20332;-88
2023/01/08 06:01:23;;;;;;;2.67;1.13;;;;;;;;;;4926107;29;20036;-88
2023/01/08 06:03:58;;;;;;;2.63;1.20;;;9.30;99.90;;;;;;4928474;29;20040;-86
2023/01/08 06:06:27;;;;;;;2.92;1.55;;;;;;;;;;4929859;29;20028;-88
2023/01/08 06:09:02;;;;;;;2.03;1.30;;;9.30;99.90;;;;;;4937745;29;20046;-87
2023/01/08 06:11:37;;;;;;;2.38;1.50;;;9.20;99.90;;;;;;4926696;29;20047;-87
2023/01/08 06:14:03;;;;;;;2.70;1.30;;;;;;;;;;4926150;29;20108;-86
2023/01/08 06:16:31;;;;;;;2.58;1.50;;;;;;;;;;4943605;29;20043;-85
2023/01/08 06:19:02;;;;;;;2.65;1.52;;;9.20;99.90;;;;;;4944833;29;20039;-89
2023/01/08 06:21:29;;;;;;;2.03;1.30;;;;;;;;;;4931053;29;20024;-88
2023/01/08 06:23:55;;;;;;;2.33;1.48;;;;;;;;;;4927806;29;20039;-88
2023/01/08 06:26:21;;;;;;;3.38;1.50;;;;;;;;;;4940891;29;20046;-88
2023/01/08 06:28:55;;;;;;;3.33;1.58;;;9.20;99.90;;;;;;4943402;29;20042;-87
2023/01/08 06:31:21;;;;;;;3.10;1.65;;;;;;;;;;4936528;29;20020;-87
2023/01/08 06:33:47;;;;;;;3.20;1.90;;;;;;;;;;4948887;29;20035;-87
2023/01/08 06:36:14;;;;;;;3.47;1.80;;;;;;;;;;4930323;29;20035;-88
2023/01/08 06:38:40;;;;;;;2.53;1.70;;;;;;;;;;4936766;29;20059;-89
2023/01/08 06:41:09;;;;;;;3.17;1.80;;;9.20;99.90;;;;;;4927695;29;20055;-85
2023/01/08 06:43:37;;;;;;;2.88;1.70;;;;;;;;;;4944073;29;20055;-85
2023/01/08 06:46:05;;;;;;;2.65;1.80;;;9.20;99.90;;;;;;4927712;29;20374;-84
2023/01/08 06:48:31;;;;;;;3.88;2.05;;;;;;;;;;4928185;29;20110;-87
2023/01/08 06:50:59;;;;;;;2.42;1.80;;;9.20;99.90;;;;;;4941750;29;20063;-86
2023/01/08 06:53:25;;;;;;;4.22;1.67;;;9.30;99.90;;;;;;4925234;29;20054;-89
2023/01/08 06:55:57;;;;;;;3.80;1.90;;;;;;;;;;4923718;29;20039;-91
2023/01/08 06:58:29;;;;;;;3.28;1.80;;;9.20;99.90;;;;;;4938289;29;20060;-88
2023/01/08 07:00:58;;;;;;;4.13;2.10;;;;;;;;;;4925730;29;20042;-87
2023/01/08 07:03:24;;;;;;;2.13;1.55;;;;;;;;;;4941774;29;20039;-86
2023/01/08 07:05:50;;;;;;;2.67;1.80;;;;;;;;;;4941821;29;20036;-89
2023/01/08 07:08:19;;;;;;;4.85;2.05;;;9.20;99.90;;;;;;4942002;29;20042;-84
2023/01/08 07:10:46;;;;;;;3.80;2.38;;;;;;;;;;4923722;29;20032;-87
2023/01/08 07:13:14;;;;;;;3.60;2.13;;;;;;;;;;4922913;29;20028;-87
2023/01/08 07:15:43;;;;;;;3.83;2.47;;;10.00;99.90;;;;;;4940723;29;20043;-89
2023/01/08 07:18:19;;;;;;;4.07;2.00;;;9.10;99.90;;;;;;4926628;29;20041;-86
2023/01/08 07:20:49;;;;;;;4.38;2.13;;;9.00;99.90;;;;;;4937272;29;20027;-88
2023/01/08 07:23:16;;;;;;;3.40;2.10;;;;;;;;;;4942466;29;20031;-88
2023/01/08 07:25:49;;;;;;;3.60;2.20;;;;;;;;;;4926124;29;20059;-87
2023/01/08 07:28:15;;;;;;;3.60;2.33;;;;;;;;;;4926686;29;20007;-89
2023/01/08 07:30:43;;;;;;;3.03;2.13;;;;;;;;;;4939622;29;20071;-88
2023/01/08 07:33:09;;;;;;;4.20;2.42;;;;;;;;;;4924380;28;20047;-84
2023/01/08 07:35:56;;;;;;;2.95;2.05;;;9.10;99.90;;;;;;4950183;28;20020;-87
2023/01/08 07:38:23;;;;;;;3.05;2.22;;;9.10;99.90;;;;;;4933320;29;20054;-89
2023/01/08 07:41:00;;;;;;;4.47;2.20;;;9.10;99.90;;;;;;4924750;28;20023;-85
2023/01/08 07:43:28;;;;;;;4.68;2.20;;;;;;;;;;4938549;29;20042;-89
2023/01/08 07:45:55;;;;;;;3.95;2.40;;;;;;;;;;4938892;29;21488;-88
2023/01/08 07:48:30;;;;;;;4.10;2.25;;;;;;;;;;4937863;29;20039;-88
2023/01/08 07:51:01;;;;;;;4.90;2.30;;;9.10;99.90;;;;;;4941450;29;20028;-88
2023/01/08 07:53:26;;;;;;;3.63;2.10;;;9.10;99.90;;;;;;4927112;29;20031;-88
2023/01/08 07:55:57;;;;;;;4.22;2.25;;;9.10;99.90;;;;;;4923217;29;20042;-88
2023/01/08 07:58:22;;;;;;;3.38;2.08;;;9.10;99.90;;;;;;4931405;29;20031;-90
2023/01/08 08:00:48;;;;;;;3.17;2.25;;;9.20;99.90;;;;;;4940895;29;20248;-88
2023/01/08 08:03:14;;;;;;;4.03;2.33;;;9.10;99.90;;;;;;4928125;29;20036;-88
2023/01/08 08:05:42;;;;;;;3.70;2.67;;;;;;;;;;4929453;29;20028;-87
2023/01/08 08:08:12;;;;;;;3.55;2.35;;;9.10;99.90;;;;;;4944009;28;20103;-89
2023/01/08 08:10:45;;;;;;;4.95;2.70;;;;;;;;;;4928760;29;20103;-85
2023/01/08 08:13:12;;;;;;;3.40;2.42;;;;;;;;;;4948124;29;20038;-87
2023/01/08 08:15:39;;;;;;;3.88;3.05;;;9.10;99.90;;;;;;4932207;29;20019;-89
2023/01/08 08:18:05;;;;;;;4.13;2.58;;;;;;;;;;4947694;29;20027;-86
2023/01/08 08:20:31;;;;;;;4.28;2.55;;;;;;;;;;4951145;29;20028;-88
2023/01/08 08:23:08;;;;;;;3.65;2.70;;;9.00;99.90;;;;;;4950352;28;20404;-88
2023/01/08 08:25:37;;;;;;;4.50;2.45;;;9.10;99.90;;;;;;4944034;29;20051;-88
2023/01/08 08:28:03;;;;;;;4.50;2.90;;;9.00;99.90;;;;;;4946870;29;20134;-88
2023/01/08 08:30:32;;;;;;;4.43;2.92;;;9.10;99.90;;;;;;4928951;29;20068;-86
2023/01/08 08:33:00;;;;;;;4.53;3.10;;;9.10;99.90;;;;;;4931855;29;20039;-88
2023/01/08 08:35:26;;;;;;;4.00;2.70;;;;;;;;;;4933933;29;20040;-90
2023/01/08 08:37:53;;;;;;;3.70;2.72;;;9.20;99.90;;;;;;4948259;29;20107;-84
2023/01/08 08:40:22;;;;;;;3.60;2.60;;;;;;;;;;4943782;28;20032;-87
2023/01/08 08:42:48;;;;;;;3.80;2.65;;;;;;;;;;4945752;28;20143;-87
2023/01/08 08:45:14;;;;;;;3.70;2.63;;;;;;;;;;4944971;28;20028;-87
2023/01/08 08:47:40;;;;;;;3.85;2.60;;;;;;;;;;4932592;29;20035;-89
2023/01/08 08:50:07;;;;;;;4.15;2.80;;;;;;;;;;4939118;29;20039;-90
2023/01/08 08:52:33;;;;;;;4.88;2.70;;;;;;;;;;4945528;28;20020;-87
2023/01/08 08:54:59;;;;;;;4.80;2.60;;;9.40;99.90;;;;;;4944038;28;20028;-88
2023/01/08 08:57:26;;;;;;;5.22;3.30;;;9.40;99.90;;;;;;4928771;28;20150;-89
2023/01/08 08:59:52;;;;;;;3.75;2.47;;;9.50;99.90;;;;;;4927351;28;20091;-90
2023/01/08 09:02:18;;;;;;;4.25;2.85;;;;;;;;;;4934705;28;20044;-87
2023/01/08 09:04:47;;;;;;;4.18;2.42;;;;;;;;;;4933290;29;20031;-88
2023/01/08 09:07:13;;;;;;;3.75;2.67;;;;;;;;;;4952135;28;20024;-89
2023/01/08 09:09:42;;;;;;;3.20;2.40;;;;;;;;;;4935039;29;20052;-87
2023/01/08 09:12:08;;;;;;;4.45;2.47;;;9.60;99.90;;;;;;4952973;28;20036;-87
2023/01/08 09:14:34;;;;;;;4.57;2.42;;;;;;;;;;4937273;28;20050;-88
2023/01/08 09:17:00;;;;;;;5.65;2.63;;;;;;;;;;4935788;28;20112;-88
2023/01/08 09:19:26;;;;;;;3.53;2.30;;;;;;;;;;4952895;28;20032;-89
2023/01/08 09:21:52;;;;;;;4.47;2.85;;;;;;;;;;4954341;28;20065;-89
2023/01/08 09:24:18;;;;;;;4.82;3.50;;;;;;;;;;4952012;28;20164;-89
2023/01/08 09:26:44;;;;;;;5.53;3.40;;;;;;;;;;4947840;28;20012;-91
2023/01/08 09:29:10;;;;;;;4.93;2.58;;;9.60;99.90;;;;;;4946365;28;20017;-91
2023/01/08 09:31:36;;;;;;;5.18;2.80;;;;;;;;;;4936455;28;20021;-89
2023/01/08 09:34:02;;;;;;;5.00;2.85;;;9.60;99.90;;;;;;4936453;28;20043;-88
2023/01/08 09:36:28;;;;;;;3.47;2.45;;;;;;;;;;4935508;28;20020;-89
2023/01/08 09:38:54;;;;;;;4.63;2.58;;;;;;;;;;4950717;28;20034;-89
2023/01/08 09:41:34;;;;;;;4.20;2.38;;;9.70;99.90;;;;;;4939754;28;20073;-88
2023/01/08 09:44:04;;;;;;;;;;;9.70;99.90;;;;;;4951206;28;20044;-88
2023/01/08 09:46:31;;;;;;;3.65;2.10;;;;;;;;;;4932482;28;19910;-89
2023/01/08 09:49:04;;;;;;;2.67;1.92;;;9.70;99.90;;;;;;4932298;28;20016;-88
2023/01/08 09:54:34;;;;;;;4.55;2.25;;;;;;;;;;4945842;28;20058;-89
2023/01/08 09:57:03;;;;;;;3.00;1.77;;;;;;;;;;4944883;28;20028;-88
2023/01/08 09:59:32;;;;;;;3.78;2.38;;;;;;;;;;4954601;28;20088;-89
2023/01/08 10:02:00;;;;;;;3.50;2.25;;;9.80;99.90;;;;;;4957785;23;20047;-84
2023/01/08 10:04:28;;;;;;;4.72;1.85;;;9.80;99.90;;;;;;4959776;28;20102;-84
2023/01/08 10:07:23;;;;;;;4.82;2.00;;;9.80;99.90;;;;;;4964282;28;20561;-82
2023/01/08 10:09:49;;;;;;;3.65;2.03;;;;;;;;;;4959309;28;20035;-85
2023/01/08 10:12:26;;;;;;;4.63;1.80;;;9.80;99.90;;;;;;4961460;28;20115;-85
2023/01/08 10:14:55;;;;;;;2.60;1.65;;;9.80;99.90;;;;;;4962771;29;20022;-83
2023/01/08 10:17:45;;;;;;;1.90;1.30;;;9.80;99.90;;;;;;4982428;28;20038;-83
2023/01/08 10:20:13;;;;;;;;;;;9.80;99.90;;;;;;4971567;28;20019;-83
2023/01/08 10:22:38;;;;;;;1.90;1.40;;;9.80;99.90;;;;;;4961024;28;19914;-83
2023/01/08 10:25:08;;;;;;;2.63;1.58;;;9.70;99.90;;;;;;4972552;28;20115;-85
2023/01/08 10:27:51;;;;;;;3.25;1.50;;;9.80;99.90;;;;;;4955593;28;20407;-86
2023/01/08 10:30:20;;;;;;;2.97;1.48;;;9.90;99.90;;;;;;4959791;28;20041;-83
2023/01/08 10:32:52;;;;;;;2.67;1.30;;;9.90;99.90;;;;;;4965564;28;20027;-86
2023/01/08 10:35:30;;;;;;;2.65;1.30;;;9.90;99.90;;;;;;4955832;28;20089;-85
2023/01/08 10:37:56;;;;;;;2.65;1.50;;;;;;;;;;4961780;28;20034;-87
2023/01/08 10:40:44;;;;;;;2.10;1.17;;;9.90;99.90;;;;;;4970238;28;20023;-88
2023/01/08 10:43:27;;;;;;;3.25;1.50;;;10.00;99.90;;;;;;4959753;28;20034;-86
2023/01/08 10:46:06;;;;;;;2.35;1.30;;;10.00;99.90;;;;;;4958486;28;20031;-84
2023/01/08 10:48:38;;;;;;;3.83;1.55;;;10.20;99.90;;;;;;4954824;28;20035;-86
2023/01/08 10:51:15;;;;;;;2.05;1.20;;;10.20;99.90;;;;;;4975451;28;20031;-84
2023/01/08 10:53:41;;;;;;;1.90;1.20;;;10.20;99.90;;;;;;4979220;28;20038;-84
2023/01/08 10:56:21;;;;;;;2.88;1.50;;;10.30;99.90;;;;;;4957975;28;20023;-85
2023/01/08 10:58:46;;;;;;;1.48;1.00;;;10.30;99.90;;;;;;4953185;28;20034;-84
2023/01/08 11:01:23;;;;;;;3.13;1.25;;;10.20;99.90;;;;;;4955003;28;20038;-84
2023/01/08 11:03:55;;;;;;;1.70;1.13;;;10.20;99.90;;;;;;4973953;28;20061;-83
2023/01/08 11:09:22;;;;;;;2.03;1.20;;;10.30;99.90;;;;;;4991632;28;20399;-80
2023/01/08 11:11:50;;;;;;;2.70;1.40;;;10.30;99.90;;;;;;4992513;28;20031;-79
2023/01/08 11:14:34;;;;;;;2.10;1.30;;;10.30;99.90;;;;;;4956389;28;20041;-81
2023/01/08 11:17:09;;;;;;;1.35;0.90;;;10.10;99.90;;;;;;4968753;28;20054;-80
2023/01/08 11:19:35;;;;;;;2.72;1.25;;;;;;;;;;4979505;28;20030;-79
2023/01/08 11:22:24;;;;;;;2.15;1.08;;;10.20;99.90;;;;;;4961873;28;20039;-79
2023/01/08 11:24:52;;;;;;;1.50;1.00;;;10.20;99.90;;;;;;4952006;28;20050;-79
2023/01/08 11:27:32;;;;;;;1.67;1.10;;;10.30;99.90;;;;;;4945922;28;20604;-80
2023/01/08 11:30:05;;;;;;;2.47;1.33;;;10.40;99.90;;;;;;4952497;28;20041;-80
2023/01/08 11:32:51;;;;;;;2.67;1.27;;;10.20;99.90;;;;;;4968193;28;20101;-79
2023/01/08 11:35:47;;;;;;;1.83;1.20;;;10.20;99.90;;;;;;4949391;28;20089;-79
2023/01/08 11:38:13;;;;;;;2.65;1.00;;;10.30;99.90;;;;;;4978268;28;20035;-79
2023/01/08 11:41:14;;;;;;;2.95;1.10;;;10.30;99.90;;;;;;4973993;28;20050;-79
2023/01/08 11:44:08;;;;;;;5.35;2.47;;;10.40;99.90;;;;;;4946407;28;20035;-81
2023/01/08 11:46:53;;;;;;;3.00;1.10;;;10.50;99.90;;;;;;4952840;28;20077;-80
2023/01/08 11:49:35;;;;;;;3.00;1.13;;;10.60;99.90;;;;;;4952692;28;20038;-81
2023/01/08 11:52:46;;;;;;;1.70;1.05;;;10.60;99.90;;;;;;4978795;28;20031;-82
2023/01/08 11:55:41;;;;;;;1.42;0.90;;;10.60;99.90;;;;;;4945771;28;20038;-81
2023/01/08 11:58:44;;;;;;;2.53;1.20;;;10.60;99.90;;;;;;4963157;28;20007;-82
2023/01/08 12:01:42;;;;;;;2.10;1.02;;;10.60;99.90;;;;;;4978486;28;20055;-81
2023/01/08 12:05:00;;;;;;;2.20;1.63;;;10.50;99.90;;;;;;4962552;28;20111;-79
2023/01/08 12:08:04;;;;;;;3.05;1.52;;;10.40;99.90;;;;;;4978739;28;20057;-80
2023/01/08 12:11:32;;;;;;;2.88;1.08;;;10.50;99.90;;;;;;4980098;28;20025;-79
2023/01/08 12:15:06;;;;;;;2.97;1.45;;;10.50;99.90;;;;;;4961026;29;20047;-81
2023/01/08 12:17:42;;;;;;;2.47;1.40;;;10.50;99.90;;;;;;4924602;29;20126;-81
2023/01/08 12:20:35;;;;;;;2.70;1.38;;;10.60;99.90;;;;;;4940932;29;20046;-80
2023/01/08 12:26:48;;;;;;;3.28;1.17;;;10.60;99.90;;;;;;5026209;23;20055;-80
2023/01/08 12:29:29;;;;;;;2.33;1.10;;;;;;;;;;4990921;28;20034;-80
2023/01/08 12:32:15;;;;;;;3.17;1.20;;;10.80;99.90;;;;;;4982882;28;20031;-80
2023/01/08 12:35:14;;;;;;;2.40;1.10;;;10.80;99.90;;;;;;4990469;28;20042;-80
2023/01/08 12:37:46;;;;;;;1.67;0.90;;;;;;;;;;4971557;28;20038;-80
2023/01/08 12:40:34;;;;;;;1.63;1.00;;;10.60;99.90;;;;;;4992918;28;20452;-80
2023/01/08 12:43:02;;;;;;;3.40;1.02;;;;;;;;;;4995451;28;20019;-80
2023/01/08 12:45:30;;;;;;;1.70;1.00;;;;;;;;;;4991704;28;20019;-81
2023/01/08 12:48:30;;;;;;;2.80;1.20;;;10.70;99.90;;;;;;4988955;28;20026;-79
2023/01/08 12:51:00;;;;;;;2.33;1.20;;;;;;;;;;4973473;28;20041;-81
2023/01/08 12:53:38;;;;;;;2.55;1.00;;;;;;;;;;4989195;28;20027;-80
2023/01/08 12:56:22;;;;;;;3.13;1.35;;;10.70;99.90;;;;;;4982545;28;20035;-81
2023/01/08 12:59:08;;;;;;;1.58;1.10;;;10.70;99.90;;;;;;4979577;28;20003;-83
2023/01/08 13:02:05;;;;;;;2.17;1.10;;;10.60;99.90;;;;;;4969492;28;20452;-80
2023/01/08 13:04:42;;;;;;;3.58;1.35;;;10.70;99.90;;;;;;4965809;28;20035;-81
2023/01/08 13:07:17;;;;;;;2.20;1.10;;;10.60;99.90;;;;;;4971566;28;20049;-80
2023/01/08 13:09:43;;;;;;;1.33;1.15;;;10.60;99.90;;;;;;4969866;28;20263;-81
2023/01/08 13:12:13;;;;;;;2.20;1.10;;;;;;;;;;4972076;28;20035;-81
2023/01/08 13:14:46;;;;;;;3.60;1.48;;;10.80;99.90;;;;;;4970612;28;20030;-82
2023/01/08 13:17:24;;;;;;;2.33;1.30;;;10.70;99.90;;;;;;4974947;28;20034;-81
2023/01/08 13:20:05;;;;;;;2.80;1.20;;;10.70;99.90;;;;;;4980702;28;20079;-81
2023/01/08 13:22:37;;;;;;;2.33;1.10;;;10.70;99.90;;;;;;4965739;28;20029;-80
2023/01/08 13:25:18;;;;;;;1.92;1.00;;;;;;;;;;4969232;28;20038;-81
2023/01/08 13:27:50;;;;;;;2.65;1.10;;;10.70;99.90;;;;;;4967097;28;20155;-81
2023/01/08 13:30:34;;;;;;;2.63;1.13;;;;;;;;;;4967467;28;20050;-81
2023/01/08 13:33:01;;;;;;;2.33;0.80;;;;;;;;;;4985593;28;20558;-80
2023/01/08 13:35:28;;;;;;;7.68;2.05;;;;;;;;;;4978689;28;20022;-81
2023/01/08 13:38:09;;;;;;;2.50;1.10;;;;;;;;;;4967355;28;20026;-79
2023/01/08 13:40:45;;;;;;;4.25;1.13;;;;;;;;;;4974687;28;20062;-80
2023/01/08 13:43:29;;;;;;;1.95;1.23;;;10.60;99.90;;;;;;4983594;28;20030;-80
2023/01/08 13:46:01;;;;;;;1.75;1.00;;;;;;;;;;4982751;28;20035;-80
2023/01/08 13:48:32;;;;;;;3.10;1.08;;;10.50;99.90;;;;;;4983070;28;20018;-81
2023/01/08 13:50:59;;;;;;;3.42;1.30;;;;;;;;;;4981218;28;20027;-81
2023/01/08 13:53:28;;;;;;;3.10;1.25;;;;;;;;;;4972626;28;20039;-80
2023/01/08 13:55:59;;;;;;;3.78;1.25;;;10.50;99.90;;;;;;4957820;28;20062;-79
2023/01/08 13:58:29;;;;;;;2.50;1.20;;;10.40;99.90;;;;;;4974704;28;20066;-81
2023/01/08 14:00:56;;;;;;;2.85;1.50;;;10.40;99.90;;;;;;4973558;28;20032;-80
2023/01/08 14:03:23;;;;;;;3.97;1.30;;;;;;;;;;4964329;28;20054;-80
2023/01/08 14:05:50;;;;;;;2.30;1.20;;;;;;;;;;4985386;28;20027;-81
2023/01/08 14:08:23;;;;;;;2.45;1.00;;;10.40;99.90;;;;;;4986029;28;20026;-81
2023/01/08 14:10:50;;;;;;;3.25;1.33;;;;;;;;;;4985134;28;20031;-80